createdAt,value
2018-07-02T00:00:35.850Z,63.76
2018-07-02T00:01:44.711Z,64.53
2018-07-02T00:02:53.724Z,64.15
2018-07-02T00:04:02.891Z,63.96
2018-07-02T00:05:11.754Z,64.53
2018-07-02T00:06:20.642Z,64.25
2018-07-02T00:07:29.565Z,65.59
2018-07-02T00:08:38.580Z,65.68
2018-07-02T00:09:47.444Z,65.78
2018-07-02T00:10:56.613Z,65.59
2018-07-02T00:12:05.477Z,65.49
2018-07-02T00:13:14.338Z,65.49
2018-07-02T00:14:23.254Z,66.32
2018-07-02T00:15:32.121Z,65.97
2018-07-02T00:16:40.982Z,66.51
2018-07-02T00:17:49.845Z,66.64
2018-07-02T00:18:58.708Z,66.32
2018-07-02T00:20:07.923Z,66.51
2018-07-02T00:21:16.783Z,66.8
2018-07-02T00:22:25.644Z,67.18
2018-07-02T00:23:34.508Z,66.32
2018-07-02T00:24:43.368Z,66.8
2018-07-02T00:25:52.394Z,67.09
2018-07-02T00:27:01.655Z,67.28
2018-07-02T00:28:10.514Z,67.18
2018-07-02T00:29:19.375Z,66.99
2018-07-02T00:30:28.238Z,68.24
2018-07-02T00:31:37.155Z,68.43
2018-07-02T00:32:46.400Z,68.52
2018-07-02T00:33:56.163Z,67.76
2018-07-02T00:35:06.502Z,67.76
2018-07-02T00:36:15.362Z,68.24
2018-07-02T00:37:24.474Z,68.33
2018-07-02T00:38:33.333Z,68.52
2018-07-02T00:39:42.195Z,68.33
2018-07-02T00:40:51.365Z,68.62
2018-07-02T00:42:00.223Z,67.72
2018-07-02T00:43:09.140Z,68.68
2018-07-02T00:44:18.001Z,67.82
2018-07-02T00:45:26.863Z,68.11
2018-07-02T00:46:35.729Z,69.07
2018-07-02T00:47:45.201Z,68.78
2018-07-02T00:48:54.623Z,68.87
2018-07-02T00:50:04.417Z,69.07
2018-07-02T00:51:13.605Z,69.74
2018-07-02T00:52:22.465Z,68.68
2018-07-02T00:53:31.326Z,70.21
2018-07-02T00:54:40.337Z,69.54
2018-07-02T00:55:49.197Z,70.7
2018-07-02T00:56:58.055Z,70.12
2018-07-02T00:58:07.552Z,69.83
2018-07-02T00:59:16.414Z,70.41
2018-07-02T01:00:25.327Z,70.31
2018-07-02T01:01:35.298Z,70.7
2018-07-02T01:02:44.467Z,70.98
2018-07-02T01:03:53.329Z,71.08
2018-07-02T01:05:02.192Z,70.98
2018-07-02T01:06:11.506Z,70.89
2018-07-02T01:07:20.369Z,71.37
2018-07-02T01:08:29.230Z,71.75
2018-07-02T01:09:38.389Z,71.46
2018-07-02T01:10:47.580Z,71.52
2018-07-02T01:11:56.644Z,71.81
2018-07-02T01:13:05.507Z,71.62
2018-07-02T01:14:15.811Z,71.52
2018-07-02T01:15:24.674Z,72.19
2018-07-02T01:16:33.537Z,73.05
2018-07-02T01:17:43.029Z,72.38
2018-07-02T01:18:51.894Z,72.38
2018-07-02T01:20:00.756Z,71.71
2018-07-02T01:21:09.616Z,71.33
2018-07-02T01:22:18.475Z,72.38
2018-07-02T01:23:27.589Z,72.38
2018-07-02T01:24:36.450Z,72
2018-07-02T01:25:45.310Z,72.86
2018-07-02T01:26:54.175Z,72
2018-07-02T01:28:03.033Z,72.58
2018-07-02T01:29:11.893Z,72.19
2018-07-02T01:30:20.755Z,72.48
2018-07-02T01:31:29.934Z,72.86
2018-07-02T01:32:39.418Z,71.91
2018-07-02T01:33:48.279Z,73.24
2018-07-02T01:34:57.185Z,72.96
2018-07-02T01:36:06.050Z,73.05
2018-07-02T01:37:14.910Z,72.67
2018-07-02T01:38:23.771Z,73.44
2018-07-02T01:39:32.645Z,72.67
2018-07-02T01:40:41.843Z,73.54
2018-07-02T01:41:50.706Z,73.3
2018-07-02T01:42:59.570Z,73.72
2018-07-02T01:44:08.429Z,73.82
2018-07-02T01:45:17.293Z,73.72
2018-07-02T01:46:27.574Z,74.07
2018-07-02T01:47:36.434Z,72.92
2018-07-02T01:48:45.294Z,73.3
2018-07-02T01:49:54.154Z,72.63
2018-07-02T01:51:03.023Z,74.26
2018-07-02T01:52:12.178Z,74.26
2018-07-02T01:53:21.045Z,73.79
2018-07-02T01:54:29.907Z,74.07
2018-07-02T01:55:38.766Z,73.88
2018-07-02T01:56:48.546Z,74.74
2018-07-02T01:57:57.507Z,74.55
2018-07-02T01:59:06.369Z,75.02
2018-07-02T02:00:15.230Z,75.12
2018-07-02T02:01:24.091Z,76.18
2018-07-02T02:02:32.951Z,75.22
2018-07-02T02:03:41.862Z,74.55
2018-07-02T02:04:50.723Z,76.18
2018-07-02T02:05:59.583Z,75.6
2018-07-02T02:07:08.446Z,75.6
2018-07-02T02:08:17.303Z,77.04
2018-07-02T02:09:26.215Z,75.12
2018-07-02T02:10:35.078Z,75.51
2018-07-02T02:11:43.939Z,75.6
2018-07-02T02:12:52.801Z,76.94
2018-07-02T02:14:02.337Z,76.18
2018-07-02T02:15:12.257Z,77.61
2018-07-02T02:16:21.421Z,77.7
2018-07-02T02:17:30.286Z,77.33
2018-07-02T02:18:39.453Z,77.8
2018-07-02T02:19:48.316Z,76.94
2018-07-02T02:20:57.473Z,78.47
2018-07-02T02:22:06.335Z,77.9
2018-07-02T02:23:15.196Z,76.71
2018-07-02T02:24:24.058Z,77.86
2018-07-02T02:25:32.919Z,78.63
2018-07-02T02:26:41.826Z,78.63
2018-07-02T02:27:50.689Z,78.43
2018-07-02T02:28:59.840Z,78.63
2018-07-02T02:30:08.702Z,78.91
2018-07-02T02:31:17.884Z,78.72
2018-07-02T02:32:26.847Z,79.39
2018-07-02T02:33:35.706Z,78.91
2018-07-02T02:34:45.176Z,79.49
2018-07-02T02:35:54.034Z,79.68
2018-07-02T02:37:03.795Z,79.87
2018-07-02T02:38:13.074Z,79.87
2018-07-02T02:39:21.876Z,80.54
2018-07-02T02:40:31.332Z,80.69
2018-07-02T02:41:41.029Z,80.5
2018-07-02T02:42:50.181Z,79.35
2018-07-02T02:43:59.451Z,80.59
2018-07-02T02:45:08.641Z,80.4
2018-07-02T02:46:18.136Z,81.11
2018-07-02T02:47:27.300Z,80.98
2018-07-02T02:48:37.041Z,80.4
2018-07-02T02:49:46.369Z,80.98
2018-07-02T02:50:56.657Z,80.98
2018-07-02T02:52:05.520Z,80.21
2018-07-02T02:53:14.385Z,80.59
2018-07-02T02:54:23.531Z,80.98
2018-07-02T02:55:32.689Z,79.83
2018-07-02T02:56:41.843Z,80.5
2018-07-02T02:57:50.708Z,80.98
2018-07-02T02:58:59.565Z,81.16
2018-07-02T03:00:09.102Z,81.07
2018-07-02T03:01:18.307Z,80.88
2018-07-02T03:02:27.461Z,80.5
2018-07-02T03:03:36.321Z,81.45
2018-07-02T03:04:45.485Z,80.5
2018-07-02T03:05:54.644Z,80.3
2018-07-02T03:07:03.959Z,80.4
2018-07-02T03:08:13.819Z,80.3
2018-07-02T03:09:22.681Z,80.5
2018-07-02T03:10:33.320Z,80.59
2018-07-02T03:11:42.492Z,80.69
2018-07-02T03:12:51.400Z,81.16
2018-07-02T03:14:00.261Z,80.59
2018-07-02T03:15:09.139Z,80.69
2018-07-02T03:16:18.289Z,79.83
2018-07-02T03:17:27.747Z,80.02
2018-07-02T03:18:36.661Z,79.83
2018-07-02T03:19:45.521Z,80.59
2018-07-02T03:20:54.383Z,79.93
2018-07-02T03:22:03.544Z,80.69
2018-07-02T03:23:12.408Z,81.07
2018-07-02T03:24:21.381Z,81.16
2018-07-02T03:25:30.241Z,81.07
2018-07-02T03:26:39.701Z,81.84
2018-07-02T03:27:50.070Z,81.65
2018-07-02T03:28:58.939Z,80.98
2018-07-02T03:30:08.164Z,81.41
2018-07-02T03:31:17.334Z,82.31
2018-07-02T03:32:26.507Z,82.31
2018-07-02T03:33:35.367Z,81.41
2018-07-02T03:34:44.229Z,81.74
2018-07-02T03:35:53.245Z,82.37
2018-07-02T03:37:02.101Z,82.46
2018-07-02T03:38:10.961Z,81.99
2018-07-02T03:39:20.131Z,81.7
2018-07-02T03:40:28.996Z,82.08
2018-07-02T03:41:37.955Z,82.37
2018-07-02T03:42:47.869Z,81.7
2018-07-02T03:43:57.046Z,81.79
2018-07-02T03:45:05.905Z,82.46
2018-07-02T03:46:14.766Z,81.6
2018-07-02T03:47:24.039Z,81.7
2018-07-02T03:48:33.214Z,82.28
2018-07-02T03:49:42.376Z,82.75
2018-07-02T03:50:51.843Z,82.75
2018-07-02T03:52:01.060Z,82.65
2018-07-02T03:53:10.906Z,82.65
2018-07-02T03:54:19.768Z,83.23
2018-07-02T03:55:28.939Z,83.04
2018-07-02T03:56:37.803Z,82.08
2018-07-02T03:57:46.657Z,82.84
2018-07-02T03:58:55.669Z,83.61
2018-07-02T04:00:04.531Z,82.94
2018-07-02T04:01:13.409Z,83.51
2018-07-02T04:02:22.253Z,83.42
2018-07-02T04:03:31.408Z,83.13
2018-07-02T04:04:40.418Z,82.65
2018-07-02T04:05:49.576Z,83.23
2018-07-02T04:06:58.436Z,83.04
2018-07-02T04:08:07.610Z,83.04
2018-07-02T04:09:17.227Z,82.84
2018-07-02T04:10:26.185Z,82.56
2018-07-02T04:11:35.366Z,81.99
2018-07-02T04:12:44.226Z,82.46
2018-07-02T04:13:53.086Z,82.84
2018-07-02T04:15:01.946Z,83.13
2018-07-02T04:16:10.959Z,83.04
2018-07-02T04:17:19.820Z,83.61
2018-07-02T04:18:28.679Z,83.61
2018-07-02T04:19:37.537Z,82.75
2018-07-02T04:20:46.396Z,83.8
2018-07-02T04:21:55.690Z,83.13
2018-07-02T04:23:04.902Z,82.56
2018-07-02T04:24:13.762Z,83.08
2018-07-02T04:25:22.934Z,83.04
2018-07-02T04:26:31.791Z,83.61
2018-07-02T04:27:40.651Z,83.8
2018-07-02T04:28:49.510Z,82.84
2018-07-02T04:29:58.370Z,84.19
2018-07-02T04:31:07.231Z,83.8
2018-07-02T04:32:16.089Z,83.13
2018-07-02T04:33:25.000Z,83.42
2018-07-02T04:34:33.860Z,83.04
2018-07-02T04:35:42.724Z,83.13
2018-07-02T04:36:51.869Z,82.84
2018-07-02T04:38:00.730Z,83.23
2018-07-02T04:39:09.740Z,82.7
2018-07-02T04:40:18.602Z,83.46
2018-07-02T04:41:28.082Z,83.08
2018-07-02T04:42:36.946Z,83.65
2018-07-02T04:43:45.805Z,83.94
2018-07-02T04:44:55.116Z,83.27
2018-07-02T04:46:04.708Z,83.27
2018-07-02T04:47:13.567Z,83.56
2018-07-02T04:48:22.427Z,83.27
2018-07-02T04:49:31.288Z,82.51
2018-07-02T04:50:40.200Z,82.89
2018-07-02T04:51:49.060Z,82.98
2018-07-02T04:52:57.921Z,83.37
2018-07-02T04:54:06.780Z,82.51
2018-07-02T04:55:15.644Z,83.46
2018-07-02T04:56:25.499Z,83.08
2018-07-02T04:57:34.410Z,82.79
2018-07-02T04:58:43.275Z,83.27
2018-07-02T04:59:52.952Z,83.46
2018-07-02T05:01:01.814Z,82.79
2018-07-02T05:02:11.305Z,82.51
2018-07-02T05:03:20.163Z,82.41
2018-07-02T05:04:29.019Z,82.79
2018-07-02T05:05:38.154Z,82.79
2018-07-02T05:06:47.015Z,82.7
2018-07-02T05:07:56.306Z,83.37
2018-07-02T05:09:05.167Z,83.37
2018-07-02T05:10:14.030Z,83.46
2018-07-02T05:11:22.891Z,82.89
2018-07-02T05:12:31.749Z,82.6
2018-07-02T05:13:40.609Z,82.41
2018-07-02T05:14:49.470Z,83.27
2018-07-02T05:15:58.332Z,82.7
2018-07-02T05:17:07.736Z,82.51
2018-07-02T05:18:16.621Z,82.7
2018-07-02T05:19:25.497Z,82.7
2018-07-02T05:20:34.637Z,81.88
2018-07-02T05:21:43.777Z,82.54
2018-07-02T05:22:52.680Z,82.64
2018-07-02T05:24:01.540Z,82.93
2018-07-02T05:25:10.677Z,82.83
2018-07-02T05:26:19.538Z,82.54
2018-07-02T05:27:28.403Z,82.74
2018-07-02T05:28:37.538Z,82.64
2018-07-02T05:29:46.400Z,82.74
2018-07-02T05:30:55.539Z,82.74
2018-07-02T05:32:04.400Z,81.59
2018-07-02T05:33:13.567Z,81.3
2018-07-02T05:34:22.514Z,80.92
2018-07-02T05:35:31.453Z,81.78
2018-07-02T05:36:40.445Z,81.88
2018-07-02T05:37:49.367Z,81.49
2018-07-02T05:38:58.802Z,81.21
2018-07-02T05:40:07.611Z,81.25
2018-07-02T05:41:16.787Z,81.15
2018-07-02T05:42:25.647Z,80.87
2018-07-02T05:43:34.523Z,81.25
2018-07-02T05:44:43.485Z,80.77
2018-07-02T05:45:52.345Z,80.19
2018-07-02T05:47:07.670Z,80.19
2018-07-02T05:48:19.580Z,79.72
2018-07-02T05:49:39.153Z,79.81
2018-07-02T05:50:57.244Z,79.52
2018-07-02T05:52:10.882Z,80.58
2018-07-02T05:53:23.428Z,80.38
2018-07-02T05:54:37.001Z,79.62
2018-07-02T05:55:51.992Z,79.81
2018-07-02T05:57:12.396Z,79.72
2018-07-02T05:58:29.026Z,80.29
2018-07-02T05:59:46.943Z,80.19
2018-07-02T06:01:03.294Z,80.29
2018-07-02T06:02:13.840Z,80.04
2018-07-02T06:03:22.984Z,80.52
2018-07-02T06:04:32.456Z,80.14
2018-07-02T06:05:41.693Z,80.04
2018-07-02T06:06:50.796Z,79.85
2018-07-02T06:07:59.881Z,79.66
2018-07-02T06:09:08.936Z,79.47
2018-07-02T06:10:18.864Z,79.37
2018-07-02T06:11:28.294Z,79.47
2018-07-02T06:12:37.297Z,79.85
2018-07-02T06:13:46.454Z,79.85
2018-07-02T06:14:55.318Z,80.14
2018-07-02T06:16:04.179Z,80.33
2018-07-02T06:17:13.091Z,78.99
2018-07-02T06:18:22.231Z,79.22
2018-07-02T06:19:31.096Z,79.22
2018-07-02T06:20:39.958Z,79.13
2018-07-02T06:21:48.830Z,79.32
2018-07-02T06:22:58.068Z,79.22
2018-07-02T06:24:06.927Z,78.64
2018-07-02T06:25:15.789Z,78.93
2018-07-02T06:26:24.924Z,78.74
2018-07-02T06:27:34.063Z,78.93
2018-07-02T06:28:43.074Z,79.32
2018-07-02T06:29:52.227Z,78.84
2018-07-02T06:31:01.375Z,79.03
2018-07-02T06:32:10.234Z,78.64
2018-07-02T06:33:19.096Z,78.17
2018-07-02T06:34:28.180Z,77.69
2018-07-02T06:35:37.323Z,77.92
2018-07-02T06:36:46.185Z,76.86
2018-07-02T06:37:55.325Z,77.44
2018-07-02T06:39:04.192Z,77.53
2018-07-02T06:40:13.253Z,76.77
2018-07-02T06:41:22.118Z,76.39
2018-07-02T06:42:30.979Z,76.77
2018-07-02T06:43:40.121Z,76.57
2018-07-02T06:44:48.983Z,76
2018-07-02T06:45:58.045Z,75.81
2018-07-02T06:47:07.263Z,75.81
2018-07-02T06:48:16.128Z,76
2018-07-02T06:49:24.991Z,76.19
2018-07-02T06:50:33.855Z,75.9
2018-07-02T06:51:43.120Z,75.14
2018-07-02T06:52:52.589Z,73.35
2018-07-02T06:54:01.463Z,73.07
2018-07-02T06:55:10.608Z,72.97
2018-07-02T06:56:19.473Z,72.97
2018-07-02T06:57:28.493Z,72.68
2018-07-02T06:58:37.367Z,72.68
2018-07-02T06:59:46.909Z,72.39
2018-07-02T07:00:56.050Z,72.01
2018-07-02T07:02:04.909Z,72.49
2018-07-02T07:03:13.874Z,72.49
2018-07-02T07:04:22.736Z,72.39
2018-07-02T07:05:31.602Z,71.95
2018-07-02T07:06:40.466Z,72.14
2018-07-02T07:07:49.326Z,71.66
2018-07-02T07:08:58.288Z,70.9
2018-07-02T07:10:07.154Z,70.99
2018-07-02T07:11:16.018Z,71.25
2018-07-02T07:12:25.199Z,71.47
2018-07-02T07:13:34.064Z,72.24
2018-07-02T07:14:43.181Z,71.82
2018-07-02T07:15:52.051Z,72.33
2018-07-02T07:17:01.183Z,72.91
2018-07-02T07:18:10.052Z,72.72
2018-07-02T07:19:18.910Z,71.76
2018-07-02T07:20:28.300Z,71.47
2018-07-02T07:21:37.165Z,69.93
2018-07-02T07:22:46.317Z,70.03
2018-07-02T07:23:55.180Z,70.51
2018-07-02T07:25:04.044Z,70.32
2018-07-02T07:26:13.283Z,71.09
2018-07-02T07:27:22.150Z,70.64
2018-07-02T07:28:31.321Z,69.4
2018-07-02T07:29:40.185Z,68.24
2018-07-02T07:30:49.048Z,67.76
2018-07-02T07:31:58.013Z,68.15
2018-07-02T07:33:06.874Z,66.23
2018-07-02T07:34:15.738Z,66.9
2018-07-02T07:35:24.601Z,66.52
2018-07-02T07:36:33.467Z,65.84
2018-07-02T07:37:42.479Z,64.59
2018-07-02T07:38:51.894Z,64.98
2018-07-02T07:40:00.763Z,64.5
2018-07-02T07:41:09.901Z,64.82
2018-07-02T07:42:18.763Z,65.59
2018-07-02T07:43:27.674Z,63.96
2018-07-02T07:44:36.549Z,63.48
2018-07-02T07:45:45.733Z,63.48
2018-07-02T07:46:54.872Z,64.15
2018-07-02T07:48:03.744Z,63.57
2018-07-02T07:49:12.706Z,63.76
2018-07-02T07:50:21.571Z,63.28
2018-07-02T07:51:30.449Z,62.71
2018-07-02T07:52:39.316Z,61.68
2018-07-02T07:53:48.176Z,62.52
2018-07-02T07:54:57.090Z,62.42
2018-07-02T07:56:06.227Z,63.12
2018-07-02T07:57:15.373Z,61.49
2018-07-02T07:58:24.517Z,60.24
2018-07-02T07:59:33.708Z,58.99
2018-07-02T08:00:43.243Z,59.66
2018-07-02T08:01:52.108Z,60.14
2018-07-02T08:03:01.541Z,59.86
2018-07-02T08:04:10.687Z,59.86
2018-07-02T08:05:19.865Z,60.24
2018-07-02T08:06:29.170Z,60.91
2018-07-02T08:07:38.034Z,60.27
2018-07-02T08:08:46.897Z,61.14
2018-07-02T08:09:55.776Z,60.75
2018-07-02T08:11:04.987Z,58.92
2018-07-02T08:12:13.953Z,55.85
2018-07-02T08:13:23.185Z,55.56
2018-07-02T08:14:32.082Z,55.18
2018-07-02T08:15:40.951Z,56.14
2018-07-02T08:16:49.988Z,55.94
2018-07-02T08:17:59.771Z,54.79
2018-07-02T08:19:08.815Z,54.41
2018-07-02T08:20:17.662Z,55.2
2018-07-02T08:21:26.527Z,52.7
2018-07-02T08:22:35.391Z,51.64
2018-07-02T08:23:45.008Z,52.03
2018-07-02T08:24:53.931Z,52.61
2018-07-02T08:26:02.794Z,52.22
2018-07-02T08:27:11.660Z,51.74
2018-07-02T08:28:20.526Z,50.97
2018-07-02T08:29:29.445Z,51.93
2018-07-02T08:30:38.587Z,52.34
2018-07-02T08:31:47.740Z,52.12
2018-07-02T08:32:56.655Z,52.15
2018-07-02T08:34:06.287Z,53.31
2018-07-02T08:35:15.579Z,53.4
2018-07-02T08:36:24.723Z,53.47
2018-07-02T08:37:33.590Z,53.38
2018-07-02T08:38:42.506Z,52.89
2018-07-02T08:39:51.647Z,52.92
2018-07-02T08:41:00.763Z,52.25
2018-07-02T08:42:09.902Z,50.42
2018-07-02T08:43:19.070Z,50.51
2018-07-02T08:44:27.943Z,52.25
2018-07-02T08:45:36.855Z,51.96
2018-07-02T08:46:45.788Z,51.76
2018-07-02T08:47:55.079Z,51.38
2018-07-02T08:49:03.961Z,50.13
2018-07-02T08:50:12.915Z,46.86
2018-07-02T08:51:21.831Z,46.21
2018-07-02T08:52:30.700Z,46.59
2018-07-02T08:53:39.843Z,46.01
2018-07-02T08:54:48.709Z,46.21
2018-07-02T08:55:57.572Z,46.78
2018-07-02T08:57:06.438Z,47.65
2018-07-02T08:58:15.764Z,47.27
2018-07-02T08:59:24.605Z,46.4
2018-07-02T09:00:33.756Z,46.5
2018-07-02T09:01:42.903Z,46.98
2018-07-02T09:02:52.047Z,46.71
2018-07-02T09:04:01.538Z,47.29
2018-07-02T09:05:10.405Z,47.87
2018-07-02T09:06:19.546Z,47.97
2018-07-02T09:07:28.411Z,47.67
2018-07-02T09:08:37.553Z,47.67
2018-07-02T09:09:46.843Z,46.81
2018-07-02T09:10:55.709Z,45.75
2018-07-02T09:12:04.584Z,45.27
2018-07-02T09:13:13.448Z,44.4
2018-07-02T09:14:22.313Z,45.75
2018-07-02T09:15:31.527Z,45.65
2018-07-02T09:16:40.677Z,45.75
2018-07-02T09:17:49.548Z,44.89
2018-07-02T09:18:58.683Z,46.14
2018-07-02T09:20:07.550Z,44.71
2018-07-02T09:21:16.512Z,45.48
2018-07-02T09:22:25.376Z,45.48
2018-07-02T09:23:34.515Z,44.62
2018-07-02T09:24:43.395Z,45.1
2018-07-02T09:25:52.537Z,44.9
2018-07-02T09:27:01.475Z,45.58
2018-07-02T09:28:11.020Z,45.97
2018-07-02T09:29:20.158Z,45.39
2018-07-02T09:30:29.021Z,44.13
2018-07-02T09:31:37.889Z,44.83
2018-07-02T09:32:46.755Z,43.58
2018-07-02T09:33:55.625Z,44.06
2018-07-02T09:35:05.048Z,43.1
2018-07-02T09:36:14.197Z,43.85
2018-07-02T09:37:23.065Z,43.29
2018-07-02T09:38:32.030Z,43.48
2018-07-02T09:39:40.898Z,44.35
2018-07-02T09:40:50.041Z,44.83
2018-07-02T09:41:59.178Z,44.06
2018-07-02T09:43:08.050Z,43.87
2018-07-02T09:44:17.200Z,43.87
2018-07-02T09:45:26.343Z,43.19
2018-07-02T09:46:35.491Z,42.71
2018-07-02T09:47:44.640Z,42.9
2018-07-02T09:48:53.506Z,44.27
2018-07-02T09:50:02.646Z,42.44
2018-07-02T09:51:11.789Z,41.77
2018-07-02T09:52:20.654Z,41.38
2018-07-02T09:53:29.518Z,42.54
2018-07-02T09:54:38.384Z,42.63
2018-07-02T09:55:47.257Z,42.35
2018-07-02T09:56:56.124Z,42.73
2018-07-02T09:58:04.989Z,42.93
2018-07-02T09:59:13.856Z,41.96
2018-07-02T10:00:23.003Z,41.78
2018-07-02T10:01:32.205Z,41.69
2018-07-02T10:02:41.074Z,42.08
2018-07-02T10:03:49.939Z,41.3
2018-07-02T10:04:58.805Z,41.88
2018-07-02T10:06:07.671Z,41.6
2018-07-02T10:07:16.558Z,41.4
2018-07-02T10:08:25.427Z,41.88
2018-07-02T10:09:34.493Z,40.63
2018-07-02T10:10:43.361Z,40.34
2018-07-02T10:11:52.225Z,41.11
2018-07-02T10:13:01.375Z,40.53
2018-07-02T10:14:10.238Z,39.97
2018-07-02T10:15:19.253Z,39.11
2018-07-02T10:16:28.121Z,38.62
2018-07-02T10:17:37.066Z,39.97
2018-07-02T10:18:46.041Z,39.01
2018-07-02T10:19:55.004Z,39.29
2018-07-02T10:21:04.739Z,38.53
2018-07-02T10:22:13.842Z,39.11
2018-07-02T10:23:22.719Z,38.23
2018-07-02T10:24:31.573Z,38.62
2018-07-02T10:25:40.717Z,39.39
2018-07-02T10:26:49.832Z,39.11
2018-07-02T10:27:58.701Z,38.83
2018-07-02T10:29:07.590Z,39.97
2018-07-02T10:30:16.435Z,38.81
2018-07-02T10:31:25.497Z,38.64
2018-07-02T10:32:34.566Z,37.87
2018-07-02T10:33:43.706Z,38.06
2018-07-02T10:34:53.100Z,38.93
2018-07-02T10:36:02.249Z,39.32
2018-07-02T10:37:11.391Z,38.54
2018-07-02T10:38:20.456Z,37.38
2018-07-02T10:39:29.321Z,37
2018-07-02T10:40:38.466Z,36.42
2018-07-02T10:41:47.335Z,37.1
2018-07-02T10:42:56.478Z,38.06
2018-07-02T10:44:05.695Z,37.1
2018-07-02T10:45:14.566Z,36.63
2018-07-02T10:46:23.429Z,36.34
2018-07-02T10:47:32.296Z,37.02
2018-07-02T10:48:41.213Z,36.44
2018-07-02T10:49:50.329Z,37.79
2018-07-02T10:50:59.193Z,37.12
2018-07-02T10:52:08.059Z,37.58
2018-07-02T10:53:17.204Z,37.19
2018-07-02T10:54:26.073Z,37.21
2018-07-02T10:55:35.448Z,38.64
2018-07-02T10:56:44.932Z,37.87
2018-07-02T10:57:53.909Z,36.53
2018-07-02T10:59:02.778Z,36.15
2018-07-02T11:00:11.644Z,36.82
2018-07-02T11:01:20.881Z,37.4
2018-07-02T11:02:30.123Z,37.21
2018-07-02T11:03:39.041Z,37.7
2018-07-02T11:04:47.906Z,37.13
2018-07-02T11:05:56.778Z,36.74
2018-07-02T11:07:05.995Z,36.16
2018-07-02T11:08:15.137Z,36.66
2018-07-02T11:09:24.279Z,36.18
2018-07-02T11:10:33.144Z,35.8
2018-07-02T11:11:42.013Z,36.18
2018-07-02T11:12:50.927Z,36.47
2018-07-02T11:14:00.187Z,36.57
2018-07-02T11:15:09.056Z,36.66
2018-07-02T11:16:17.916Z,36.57
2018-07-02T11:17:26.782Z,36.18
2018-07-02T11:18:35.800Z,37.54
2018-07-02T11:19:44.940Z,37.17
2018-07-02T11:20:53.805Z,36.18
2018-07-02T11:22:02.671Z,36.1
2018-07-02T11:23:11.850Z,35.23
2018-07-02T11:24:21.491Z,35.91
2018-07-02T11:25:31.001Z,37.26
2018-07-02T11:26:39.867Z,37.26
2018-07-02T11:27:48.735Z,37.34
2018-07-02T11:28:57.607Z,36
2018-07-02T11:30:06.524Z,36.78
2018-07-02T11:31:15.707Z,36.3
2018-07-02T11:32:24.849Z,37.17
2018-07-02T11:33:33.718Z,36.58
2018-07-02T11:34:42.581Z,36.3
2018-07-02T11:35:51.497Z,35.52
2018-07-02T11:37:00.368Z,36
2018-07-02T11:38:09.237Z,34.94
2018-07-02T11:39:18.101Z,36.02
2018-07-02T11:40:26.969Z,36.6
2018-07-02T11:41:35.935Z,36.22
2018-07-02T11:42:44.800Z,35.25
2018-07-02T11:43:53.664Z,34.88
2018-07-02T11:45:02.806Z,35.75
2018-07-02T11:46:11.673Z,35.36
2018-07-02T11:47:20.637Z,35.85
2018-07-02T11:48:29.782Z,34.89
2018-07-02T11:49:38.655Z,33.91
2018-07-02T11:50:47.528Z,34.2
2018-07-02T11:51:56.397Z,34.99
2018-07-02T11:53:05.313Z,34.61
2018-07-02T11:54:14.181Z,34.51
2018-07-02T11:55:23.049Z,34.12
2018-07-02T11:56:31.918Z,33.83
2018-07-02T11:57:40.784Z,33.15
2018-07-02T11:58:49.902Z,32.97
2018-07-02T11:59:58.771Z,33.07
2018-07-02T12:01:07.914Z,33.84
2018-07-02T12:02:16.786Z,32.87
2018-07-02T12:03:25.653Z,32.2
2018-07-02T12:04:34.624Z,32.99
2018-07-02T12:05:43.494Z,32.6
2018-07-02T12:06:52.640Z,32.89
2018-07-02T12:08:01.511Z,33.01
2018-07-02T12:09:10.381Z,32.91
2018-07-02T12:10:19.250Z,33.01
2018-07-02T12:11:28.121Z,33.01
2018-07-02T12:12:36.996Z,33.69
2018-07-02T12:13:45.864Z,33.01
2018-07-02T12:14:55.019Z,32.81
2018-07-02T12:16:04.248Z,33.01
2018-07-02T12:17:13.122Z,32.54
2018-07-02T12:18:21.995Z,32.44
2018-07-02T12:19:31.208Z,32.26
2018-07-02T12:20:40.385Z,33.04
2018-07-02T12:21:49.788Z,32.24
2018-07-02T12:22:58.662Z,31
2018-07-02T12:24:07.816Z,30.71
2018-07-02T12:25:16.694Z,30.8
2018-07-02T12:26:25.567Z,31.19
2018-07-02T12:27:34.992Z,31
2018-07-02T12:28:43.865Z,30.72
2018-07-02T12:29:52.793Z,30.04
2018-07-02T12:31:01.670Z,30.72
2018-07-02T12:32:10.547Z,30.54
2018-07-02T12:33:19.699Z,30.04
2018-07-02T12:34:29.138Z,29.28
2018-07-02T12:35:38.295Z,30.04
2018-07-02T12:36:47.451Z,29.75
2018-07-02T12:37:56.334Z,30.14
2018-07-02T12:39:05.539Z,30.72
2018-07-02T12:40:14.695Z,31.03
2018-07-02T12:41:23.571Z,29.96
2018-07-02T12:42:32.450Z,30.05
2018-07-02T12:43:41.607Z,29.76
2018-07-02T12:44:50.635Z,30.74
2018-07-02T12:45:59.513Z,29.86
2018-07-02T12:47:08.393Z,30.26
2018-07-02T12:48:17.547Z,29.1
2018-07-02T12:49:26.704Z,28.59
2018-07-02T12:50:35.733Z,27.65
2018-07-02T12:51:44.621Z,26.98
2018-07-02T12:52:53.499Z,27.18
2018-07-02T12:54:02.459Z,27.76
2018-07-02T12:55:11.705Z,27
2018-07-02T12:56:20.861Z,27.69
2018-07-02T12:57:29.745Z,27.11
2018-07-02T12:58:38.904Z,27.22
2018-07-02T12:59:48.106Z,26.34
2018-07-02T13:00:56.987Z,27.7
2018-07-02T13:02:06.118Z,26.63
2018-07-02T13:03:14.997Z,26.06
2018-07-02T13:04:23.894Z,24.89
2018-07-02T13:05:32.762Z,24.71
2018-07-02T13:06:41.640Z,25.1
2018-07-02T13:07:50.699Z,24.5
2018-07-02T13:08:59.554Z,24.9
2018-07-02T13:10:08.434Z,24.71
2018-07-02T13:11:17.591Z,25.1
2018-07-02T13:12:26.473Z,25.78
2018-07-02T13:13:36.041Z,24.51
2018-07-02T13:14:45.281Z,26.74
2018-07-02T13:15:54.442Z,27.13
2018-07-02T13:17:03.451Z,26.92
2018-07-02T13:18:12.495Z,26.15
2018-07-02T13:19:21.699Z,25.2
2018-07-02T13:20:30.581Z,25.27
2018-07-02T13:21:39.755Z,27.91
2018-07-02T13:22:48.635Z,27.83
2018-07-02T13:23:57.825Z,25.78
2018-07-02T13:25:07.061Z,27.05
2018-07-02T13:26:15.936Z,25.67
2018-07-02T13:27:25.374Z,26.64
2018-07-02T13:28:34.254Z,25.98
2018-07-02T13:29:43.136Z,25.78
2018-07-02T13:30:52.122Z,24.71
2018-07-02T13:32:01.005Z,24.91
2018-07-02T13:33:10.199Z,25.39
2018-07-02T13:34:19.189Z,26.67
2018-07-02T13:35:28.081Z,26.38
2018-07-02T13:36:37.370Z,25.31
2018-07-02T13:37:46.358Z,25.12
2018-07-02T13:38:55.262Z,24.73
2018-07-02T13:40:04.144Z,25.81
2018-07-02T13:41:13.307Z,25.02
2018-07-02T13:42:22.357Z,23.85
2018-07-02T13:43:31.677Z,23.65
2018-07-02T13:44:40.834Z,23.94
2018-07-02T13:45:49.808Z,23.86
2018-07-02T13:46:58.964Z,25.72
2018-07-02T13:48:07.948Z,25.22
2018-07-02T13:49:17.109Z,25.12
2018-07-02T13:50:26.026Z,25.42
2018-07-02T13:51:34.888Z,25.02
2018-07-02T13:52:43.773Z,25.02
2018-07-02T13:53:52.806Z,24.73
2018-07-02T13:55:01.966Z,24.82
2018-07-02T13:56:11.165Z,24.64
2018-07-02T13:57:20.048Z,24.36
2018-07-02T13:58:28.931Z,25.15
2018-07-02T13:59:38.242Z,25.43
2018-07-02T14:00:47.137Z,25.82
2018-07-02T14:01:56.026Z,25.34
2018-07-02T14:03:05.185Z,24.64
2018-07-02T14:04:14.351Z,25.13
2018-07-02T14:05:23.660Z,24.55
2018-07-02T14:06:32.543Z,25.26
2018-07-02T14:07:41.426Z,25.44
2018-07-02T14:08:50.312Z,23.58
2018-07-02T14:09:59.192Z,23.58
2018-07-02T14:11:08.629Z,23.48
2018-07-02T14:12:17.525Z,24.46
2018-07-02T14:13:26.410Z,25.63
2018-07-02T14:14:35.299Z,23.2
2018-07-02T14:15:44.176Z,23.68
2018-07-02T14:16:53.061Z,24.64
2018-07-02T14:18:01.948Z,24.95
2018-07-02T14:19:11.110Z,23.58
2018-07-02T14:20:19.995Z,23.88
2018-07-02T14:21:28.878Z,23.3
2018-07-02T14:22:37.863Z,25.06
2018-07-02T14:23:47.300Z,23.6
2018-07-02T14:24:56.183Z,23.31
2018-07-02T14:26:05.066Z,23.3
2018-07-02T14:27:13.972Z,22.81
2018-07-02T14:28:23.188Z,23.41
2018-07-02T14:29:32.072Z,22.83
2018-07-02T14:30:40.955Z,23.22
2018-07-02T14:31:50.119Z,22.35
2018-07-02T14:32:59.100Z,23.43
2018-07-02T14:34:08.942Z,23.53
2018-07-02T14:35:17.829Z,22.84
2018-07-02T14:36:27.273Z,22.55
2018-07-02T14:37:36.704Z,22.73
2018-07-02T14:38:45.865Z,22.53
2018-07-02T14:39:54.902Z,22.73
2018-07-02T14:41:03.786Z,23.6
2018-07-02T14:42:12.670Z,23.32
2018-07-02T14:43:21.552Z,23.91
2018-07-02T14:44:30.716Z,22.92
2018-07-02T14:45:39.946Z,22.53
2018-07-02T14:46:48.832Z,22.64
2018-07-02T14:47:57.713Z,22.25
2018-07-02T14:49:06.884Z,22.16
2018-07-02T14:50:16.062Z,22.35
2018-07-02T14:51:25.491Z,22.53
2018-07-02T14:52:35.777Z,23.81
2018-07-02T14:53:44.663Z,23.03
2018-07-02T14:54:53.548Z,22.74